Time;durP1;ratioP1;P1;durP2;ratioP2;P2;SDS_P1;SDS_P2;PMS_P1;PMS_P2;Temp;Humidity;BMP_temperature;BMP_pressure;BME280_temperature;BME280_humidity;BME280_pressure;Samples;Min_cycle;Max_cycle;Signal;HPM_P1;HPM_P2
2022/09/27 00:01:31;;;;;;;1.75;0.55;;;;;;;;;;4999247;28;20022;-75
2022/09/27 00:03:59;;;;;;;3.33;0.60;;;;;;;;;;5004739;28;20038;-75
2022/09/27 00:06:27;;;;;;;3.15;0.63;;;;;;;;;;5006072;28;20111;-75
2022/09/27 00:08:53;;;;;;;0.95;0.40;;;;;;;;;;5002542;28;20490;-76
2022/09/27 00:11:34;;;;;;;4.72;0.65;;;;;;;;;;5005222;28;20021;-75
2022/09/27 00:14:00;;;;;;;8.00;0.73;;;;;;;;;;5002110;28;20481;-76
2022/09/27 00:16:28;;;;;;;3.53;0.60;;;;;;;;;;5005068;28;20026;-76
2022/09/27 00:19:01;;;;;;;1.20;0.32;;;;;;;;;;5004195;28;20549;-75
2022/09/27 00:21:27;;;;;;;4.63;0.80;;;;;;;;;;5004834;28;20042;-78
2022/09/27 00:23:52;;;;;;;4.38;1.02;;;;;;;;;;4994639;28;20033;-77
2022/09/27 00:26:18;;;;;;;4.60;0.60;;;;;;;;;;5002095;28;20093;-75
2022/09/27 00:28:43;;;;;;;3.90;0.57;;;;;;;;;;5001161;28;20037;-76
2022/09/27 00:31:28;;;;;;;2.78;0.65;;;;;;;;;;5006655;28;20030;-75
2022/09/27 00:33:55;;;;;;;2.33;0.60;;;;;;;;;;5000335;28;20153;-76
2022/09/27 00:36:21;;;;;;;2.45;0.77;;;;;;;;;;5013792;28;20728;-76
2022/09/27 00:38:47;;;;;;;1.45;0.50;;;;;;;;;;5000879;28;20367;-75
2022/09/27 00:41:37;;;;;;;2.03;0.50;;;;;;;;;;5000721;28;20123;-76
2022/09/27 00:44:28;;;;;;;5.32;0.70;;;;;;;;;;4999773;28;20498;-76
2022/09/27 00:47:05;;;;;;;2.42;0.63;;;;;;;;;;5004748;28;20117;-75
2022/09/27 00:49:33;;;;;;;1.45;0.47;;;;;;;;;;5001730;28;20042;-75
2022/09/27 00:52:03;;;;;;;1.63;0.60;;;;;;;;;;5003605;28;20042;-76
2022/09/27 00:54:33;;;;;;;1.27;0.57;;;;;;;;;;5005099;28;20041;-75
2022/09/27 00:56:59;;;;;;;3.05;0.50;;;;;;;;;;5004139;28;20163;-75
2022/09/27 00:59:38;;;;;;;1.50;0.50;;;;;;;;;;5003445;28;20530;-75
2022/09/27 01:02:06;;;;;;;3.53;0.60;;;;;;;;;;5000919;28;20406;-75
2022/09/27 01:04:33;;;;;;;2.03;0.43;;;;;;;;;;5010711;28;20025;-76
2022/09/27 01:06:59;;;;;;;1.33;0.30;;;;;;;;;;5005168;28;20061;-76
2022/09/27 01:09:25;;;;;;;3.97;0.50;;;;;;;;;;5003813;28;20100;-77
2022/09/27 01:12:02;;;;;;;2.50;0.40;;;;;;;;;;5003610;28;20497;-75
2022/09/27 01:14:33;;;;;;;2.40;0.50;;;;;;;;;;5001889;28;20038;-76
2022/09/27 01:17:29;;;;;;;3.13;0.60;;;;;;;;;;5004336;28;20026;-76
2022/09/27 01:20:14;;;;;;;1.83;0.30;;;;;;;;;;5005441;28;20022;-75
2022/09/27 01:22:54;;;;;;;4.55;0.40;;;;;;;;;;5003109;28;20995;-76
2022/09/27 01:25:42;;;;;;;2.30;0.52;;;;;;;;;;4997435;28;20104;-78
2022/09/27 01:28:20;;;;;;;1.17;0.30;;;;;;;;;;5004658;28;20125;-76
2022/09/27 01:30:57;;;;;;;2.45;0.30;;;;;;;;;;5000590;28;20163;-80
2022/09/27 01:33:27;;;;;;;3.47;0.50;;;;;;;;;;4999240;28;20030;-77
2022/09/27 01:36:04;;;;;;;2.22;0.40;;;;;;;;;;5014025;28;20105;-76
2022/09/27 01:38:46;;;;;;;2.90;0.43;;;;;;;;;;5006309;28;20160;-77
2022/09/27 01:41:25;;;;;;;2.58;0.70;;;;;;;;;;4993036;28;20152;-75
2022/09/27 01:44:10;;;;;;;2.28;0.50;;;;;;;;;;4996756;28;20100;-77
2022/09/27 01:46:40;;;;;;;1.73;0.50;;;;;;;;;;4990451;28;20496;-77
2022/09/27 01:49:11;;;;;;;1.40;0.50;;;;;;;;;;4993975;28;20341;-77
2022/09/27 01:51:59;;;;;;;3.45;0.73;;;;;;;;;;5035380;28;20030;-77
2022/09/27 01:54:35;;;;;;;2.08;0.50;;;;;;;;;;5003619;28;20466;-77
2022/09/27 01:57:02;;;;;;;2.28;0.45;;;;;;;;;;5004856;28;20022;-76
2022/09/27 01:59:37;;;;;;;2.53;0.50;;;;;;;;;;5003837;28;20065;-77
2022/09/27 02:02:07;;;;;;;3.60;0.80;;;;;;;;;;4996055;28;20042;-76
2022/09/27 02:04:37;;;;;;;3.25;0.73;;;;;;;;;;5003798;28;20030;-77
2022/09/27 02:07:35;;;;;;;4.03;0.38;;;;;;;;;;5021513;28;20048;-77
2022/09/27 02:10:15;;;;;;;2.85;0.55;;;;;;;;;;5003822;28;20050;-77
2022/09/27 02:12:50;;;;;;;3.63;0.57;;;;;;;;;;5040187;28;20038;-77
2022/09/27 02:15:16;;;;;;;3.83;0.50;;;;;;;;;;5003184;28;20164;-77
2022/09/27 02:18:02;;;;;;;4.10;1.08;;;;;;;;;;5002532;28;20486;-75
2022/09/27 02:20:39;;;;;;;4.57;0.55;;;;;;;;;;5002264;28;20049;-76
2022/09/27 02:23:27;;;;;;;1.00;0.32;;;;;;;;;;5007294;28;20410;-76
2022/09/27 02:26:00;;;;;;;1.67;0.50;;;;;;;;;;5008286;28;20026;-76
2022/09/27 02:28:38;;;;;;;6.78;0.63;;;;;;;;;;5032444;28;20037;-76
2022/09/27 02:31:04;;;;;;;4.43;0.70;;;;;;;;;;5016482;28;20034;-76
2022/09/27 02:33:51;;;;;;;5.40;0.80;;;;;;;;;;5007101;28;20027;-76
2022/09/27 02:36:16;;;;;;;3.28;0.60;;;;;;;;;;5011028;28;20532;-76
2022/09/27 02:38:42;;;;;;;1.35;0.50;;;;;;;;;;5002932;28;20037;-78
2022/09/27 02:41:16;;;;;;;3.58;0.65;;;;;;;;;;5000944;28;20594;-77
2022/09/27 02:43:43;;;;;;;2.80;0.68;;;;;;;;;;5013301;28;20018;-77
2022/09/27 02:46:18;;;;;;;2.88;0.40;;;;;;;;;;5007765;28;20030;-77
2022/09/27 02:48:56;;;;;;;1.75;0.40;;;;;;;;;;5003489;28;20056;-77
2022/09/27 02:51:56;;;;;;;2.97;0.60;;;;;;;;;;5018814;28;20083;-77
2022/09/27 02:55:05;;;;;;;1.55;0.28;;;;;;;;;;5036830;28;20625;-76
2022/09/27 02:57:54;;;;;;;1.75;0.50;;;;;;;;;;4997856;28;20415;-76
2022/09/27 03:00:22;;;;;;;1.67;0.43;;;;;;;;;;5004460;28;20038;-76
2022/09/27 03:03:16;;;;;;;4.03;0.70;;;;;;;;;;5001205;28;21069;-77
2022/09/27 03:05:53;;;;;;;2.78;0.60;;;;;;;;;;5002320;28;20025;-77
2022/09/27 03:08:19;;;;;;;3.63;0.80;;;;;;;;;;5008581;28;20033;-76
2022/09/27 03:10:44;;;;;;;3.03;0.70;;;;;;;;;;5006819;28;20034;-76
2022/09/27 03:13:10;;;;;;;2.60;0.50;;;;;;;;;;5002965;28;20388;-78
2022/09/27 03:15:36;;;;;;;3.03;0.57;;;;;;;;;;4997914;28;20038;-77
2022/09/27 03:18:01;;;;;;;2.13;0.55;;;;;;;;;;5003767;28;20133;-75
2022/09/27 03:20:27;;;;;;;2.33;0.40;;;;;;;;;;5001117;28;20041;-76
2022/09/27 03:22:53;;;;;;;4.18;0.60;;;;;;;;;;5006486;28;20042;-76
2022/09/27 03:25:20;;;;;;;3.53;0.70;;;;;;;;;;5006662;28;20044;-76
2022/09/27 03:27:45;;;;;;;2.67;0.40;;;;;;;;;;5003568;28;20060;-76
2022/09/27 03:30:13;;;;;;;3.00;0.40;;;;;;;;;;5005872;28;20461;-77
2022/09/27 03:32:42;;;;;;;2.08;0.40;;;;;;;;;;5005888;28;20025;-76
2022/09/27 03:35:07;;;;;;;2.65;0.50;;;;;;;;;;5007526;28;20379;-76
2022/09/27 03:37:33;;;;;;;3.00;0.70;;;;;;;;;;5004077;28;20033;-76
2022/09/27 03:39:58;;;;;;;4.55;0.70;;;;;;;;;;4998074;28;20026;-76
2022/09/27 03:42:23;;;;;;;2.85;0.80;;;;;;;;;;4999031;28;20018;-78
2022/09/27 03:44:50;;;;;;;2.67;0.70;;;;;;;;;;5004192;28;20018;-77
2022/09/27 03:47:15;;;;;;;4.65;0.70;;;;;;;;;;5003408;28;20088;-76
2022/09/27 03:49:41;;;;;;;5.13;1.05;;;;;;;;;;4998469;28;20029;-77
2022/09/27 03:52:06;;;;;;;4.45;0.60;;;;;;;;;;4998749;28;20028;-77
2022/09/27 03:54:32;;;;;;;2.50;0.50;;;;;;;;;;5000947;28;20037;-76
2022/09/27 03:56:57;;;;;;;2.80;0.60;;;;;;;;;;4998193;28;20113;-76
2022/09/27 03:59:23;;;;;;;1.50;0.40;;;;;;;;;;4997255;28;20068;-76
2022/09/27 04:01:48;;;;;;;1.75;0.47;;;;;;;;;;5032773;28;20085;-76
2022/09/27 04:04:14;;;;;;;1.42;0.40;;;;;;;;;;5000705;28;20113;-76
2022/09/27 04:06:39;;;;;;;1.45;0.38;;;;;;;;;;5000140;28;20100;-77
2022/09/27 04:09:05;;;;;;;0.80;0.20;;;;;;;;;;4999104;28;20569;-76
2022/09/27 04:11:30;;;;;;;1.00;0.22;;;;;;;;;;4994594;28;20034;-76
2022/09/27 04:13:56;;;;;;;2.58;0.30;;;;;;;;;;4997906;28;20037;-76
2022/09/27 04:16:22;;;;;;;4.75;1.20;;;;;;;;;;4997572;28;20037;-76
2022/09/27 04:18:47;;;;;;;1.38;0.22;;;;;;;;;;5000279;28;20034;-76
2022/09/27 04:21:13;;;;;;;3.97;0.50;;;;;;;;;;4998804;28;20046;-76
2022/09/27 04:23:38;;;;;;;0.88;0.20;;;;;;;;;;5025030;28;20489;-77
2022/09/27 04:26:04;;;;;;;1.17;0.20;;;;;;;;;;4997430;28;20034;-76
2022/09/27 04:28:30;;;;;;;0.85;0.30;;;;;;;;;;5001411;28;20052;-76
2022/09/27 04:30:56;;;;;;;3.22;0.40;;;;;;;;;;4999968;28;20037;-79
2022/09/27 04:33:22;;;;;;;1.70;0.32;;;;;;;;;;4996667;28;20108;-76
2022/09/27 04:38:32;;;;;;;1.75;0.45;;;;;;;;;;4999099;28;20401;-77
2022/09/27 04:41:00;;;;;;;3.30;0.40;;;;;;;;;;5022212;28;20047;-76
2022/09/27 04:43:25;;;;;;;2.58;0.30;;;;;;;;;;4996648;28;20056;-76
2022/09/27 04:45:50;;;;;;;1.38;0.40;;;;;;;;;;5000134;28;20442;-77
2022/09/27 04:48:16;;;;;;;3.53;0.40;;;;;;;;;;4999269;28;20038;-76
2022/09/27 04:50:41;;;;;;;6.80;0.50;;;;;;;;;;5002739;28;20028;-77
2022/09/27 04:53:07;;;;;;;3.42;0.65;;;;;;;;;;4999144;28;20029;-76
2022/09/27 04:55:32;;;;;;;1.85;0.57;;;;;;;;;;4998088;28;20958;-76
2022/09/27 04:58:00;;;;;;;2.85;0.50;;;;;;;;;;4997233;28;20156;-78
2022/09/27 05:00:27;;;;;;;1.58;0.40;;;;;;;;;;5000924;28;20026;-76
2022/09/27 05:02:52;;;;;;;2.70;0.47;;;;;;;;;;4997994;28;20514;-78
2022/09/27 05:05:18;;;;;;;1.73;0.40;;;;;;;;;;5004146;28;20024;-76
2022/09/27 05:07:43;;;;;;;1.42;0.38;;;;;;;;;;4997792;28;20397;-77
2022/09/27 05:10:09;;;;;;;1.80;0.38;;;;;;;;;;5006109;28;20509;-76
2022/09/27 05:12:34;;;;;;;2.10;0.40;;;;;;;;;;5002434;28;20032;-76
2022/09/27 05:15:00;;;;;;;0.40;0.40;;;;;;;;;;5009551;28;20045;-76
2022/09/27 05:17:26;;;;;;;0.75;0.40;;;;;;;;;;5009965;28;20095;-77
2022/09/27 05:19:51;;;;;;;0.52;0.30;;;;;;;;;;5008095;28;20132;-75
2022/09/27 05:22:18;;;;;;;1.65;0.50;;;;;;;;;;5006800;28;20049;-76
2022/09/27 05:24:43;;;;;;;0.95;0.30;;;;;;;;;;5003730;28;20056;-76
2022/09/27 05:27:12;;;;;;;0.85;0.30;;;;;;;;;;5000107;28;20512;-79
2022/09/27 05:29:37;;;;;;;1.50;0.30;;;;;;;;;;4999192;28;20026;-77
2022/09/27 05:32:03;;;;;;;1.13;0.45;;;;;;;;;;5008427;28;20040;-76
2022/09/27 05:34:31;;;;;;;0.65;0.30;;;;;;;;;;5009641;28;20029;-76
2022/09/27 05:36:57;;;;;;;1.25;0.30;;;;;;;;;;5008489;28;20037;-76
2022/09/27 05:39:22;;;;;;;1.00;0.60;;;;;;;;;;5023033;28;20406;-76
2022/09/27 05:41:49;;;;;;;1.95;0.60;;;;;;;;;;5028477;28;20018;-76
2022/09/27 05:44:15;;;;;;;0.77;0.40;;;;;;;;;;5007588;28;20080;-76
2022/09/27 05:46:40;;;;;;;2.42;0.30;;;;;;;;;;5010915;28;20379;-76
2022/09/27 05:49:05;;;;;;;2.00;0.28;;;;;;;;;;5001020;28;20061;-77
2022/09/27 05:51:31;;;;;;;1.15;0.50;;;;;;;;;;5008880;28;20120;-77
2022/09/27 05:53:56;;;;;;;1.58;0.40;;;;;;;;;;5003255;28;20072;-77
2022/09/27 05:56:22;;;;;;;0.80;0.30;;;;;;;;;;5002719;28;20028;-77
2022/09/27 05:58:47;;;;;;;1.27;0.38;;;;;;;;;;5003375;28;20041;-75
2022/09/27 06:01:13;;;;;;;2.00;0.40;;;;;;;;;;4999042;28;20113;-76
2022/09/27 06:03:39;;;;;;;0.80;0.38;;;;;;;;;;5003967;28;20025;-76
2022/09/27 06:06:06;;;;;;;1.58;0.50;;;;;;;;;;5005793;28;20486;-76
2022/09/27 06:08:33;;;;;;;0.73;0.30;;;;;;;;;;5004387;28;20034;-77
2022/09/27 06:11:11;;;;;;;1.75;0.50;;;;;;;;;;5006547;28;20080;-75
2022/09/27 06:13:38;;;;;;;2.45;0.50;;;;;;;;;;5005937;28;20072;-77
2022/09/27 06:16:04;;;;;;;1.45;0.45;;;;;;;;;;5005692;28;20021;-76
2022/09/27 06:18:30;;;;;;;1.08;0.30;;;;;;;;;;5004868;28;20394;-76
2022/09/27 06:20:58;;;;;;;2.38;0.50;;;;;;;;;;5009955;28;20033;-77
2022/09/27 06:23:24;;;;;;;0.65;0.25;;;;;;;;;;5008488;28;20116;-76
2022/09/27 06:25:51;;;;;;;0.85;0.30;;;;;;;;;;5010810;28;20462;-76
2022/09/27 06:28:17;;;;;;;2.30;0.40;;;;;;;;;;5011295;28;20501;-76
2022/09/27 06:30:45;;;;;;;2.13;0.40;;;;;;;;;;5006019;28;20030;-76
2022/09/27 06:33:18;;;;;;;1.48;0.68;;;;;;;;;;5008998;28;20130;-76
2022/09/27 06:35:45;;;;;;;2.15;0.50;;;;;;;;;;5010428;28;20174;-75
2022/09/27 06:38:12;;;;;;;1.83;0.50;;;;;;;;;;5008362;28;20125;-76
2022/09/27 06:40:38;;;;;;;1.33;0.30;;;;;;;;;;5005396;28;20117;-77
2022/09/27 06:43:07;;;;;;;0.25;0.20;;;;;;;;;;5012464;28;20108;-75
2022/09/27 06:45:34;;;;;;;2.60;0.50;;;;;;;;;;5013771;28;20113;-76
2022/09/27 06:48:01;;;;;;;3.05;0.30;;;;;;;;;;5015025;28;20017;-76
2022/09/27 06:50:31;;;;;;;2.97;0.47;;;;;;;;;;5013870;28;20498;-75
2022/09/27 06:52:57;;;;;;;4.70;0.52;;;;;;;;;;5008150;28;20025;-76
2022/09/27 06:55:22;;;;;;;1.88;0.52;;;;;;;;;;5012200;28;20569;-76
2022/09/27 07:00:32;;;;;;;1.08;0.30;;;;;;;;;;5013321;28;20548;-75
2022/09/27 07:03:00;;;;;;;6.38;0.60;;;;;;;;;;5006606;28;20030;-77
2022/09/27 07:05:28;;;;;;;1.25;0.60;;;;;;;;;;5007804;28;20521;-76
2022/09/27 07:07:56;;;;;;;1.52;0.40;;;;;;;;;;5012277;28;20026;-75
2022/09/27 07:10:25;;;;;;;0.55;0.30;;;;;;;;;;5008028;28;20117;-76
2022/09/27 07:12:51;;;;;;;1.42;0.47;;;;;;;;;;5012147;28;20033;-76
2022/09/27 07:15:19;;;;;;;1.48;0.38;;;;;;;;;;5012761;28;20037;-76
2022/09/27 07:17:45;;;;;;;0.65;0.30;;;;;;;;;;5012897;28;20080;-76
2022/09/27 07:20:11;;;;;;;0.93;0.38;;;;;;;;;;5046708;28;20025;-75
2022/09/27 07:22:41;;;;;;;0.60;0.30;;;;;;;;;;5011558;28;20042;-75
2022/09/27 07:25:08;;;;;;;2.15;0.60;;;;;;;;;;5008535;28;20037;-76
2022/09/27 07:27:33;;;;;;;1.38;0.47;;;;;;;;;;5011741;28;20026;-76
2022/09/27 07:29:59;;;;;;;1.48;0.50;;;;;;;;;;5005006;28;20030;-76
2022/09/27 07:32:25;;;;;;;1.05;0.38;;;;;;;;;;5010804;28;20402;-76
2022/09/27 07:34:50;;;;;;;2.30;0.80;;;;;;;;;;5009788;28;20194;-76
2022/09/27 07:37:16;;;;;;;1.85;0.52;;;;;;;;;;5011774;28;20053;-76
2022/09/27 07:39:42;;;;;;;0.90;0.50;;;;;;;;;;5011990;28;20036;-76
2022/09/27 07:42:08;;;;;;;2.67;0.80;;;;;;;;;;5040903;28;20490;-76
2022/09/27 07:44:33;;;;;;;2.45;0.70;;;;;;;;;;5012436;28;20029;-75
2022/09/27 07:46:58;;;;;;;3.92;0.70;;;;;;;;;;5007306;28;20026;-77
2022/09/27 07:49:24;;;;;;;2.75;0.90;;;;;;;;;;5006710;28;20060;-76
2022/09/27 07:51:50;;;;;;;1.85;0.80;;;;;;;;;;5008924;28;20026;-76
2022/09/27 07:54:15;;;;;;;1.45;0.60;;;;;;;;;;5012818;28;20490;-76
2022/09/27 07:56:41;;;;;;;2.40;0.90;;;;;;;;;;5010469;28;20033;-76
2022/09/27 07:59:07;;;;;;;1.55;0.80;;;;;;;;;;5008245;28;20033;-76
2022/09/27 08:01:33;;;;;;;3.85;0.90;;;;;;;;;;5007521;28;20390;-75
2022/09/27 08:03:58;;;;;;;2.28;1.00;;;;;;;;;;5010306;28;20084;-76
2022/09/27 08:06:24;;;;;;;2.33;1.05;;;;;;;;;;5012596;28;20025;-76
2022/09/27 08:08:49;;;;;;;2.75;1.00;;;;;;;;;;5011074;28;20032;-76
2022/09/27 08:11:17;;;;;;;2.45;1.13;;;;;;;;;;5009653;28;20034;-77
2022/09/27 08:13:43;;;;;;;2.65;1.20;;;;;;;;;;5008339;28;20027;-75
2022/09/27 08:16:10;;;;;;;3.05;1.40;;;;;;;;;;5011123;28;20061;-76
2022/09/27 08:18:35;;;;;;;4.63;1.58;;;;;;;;;;5010961;28;20563;-76
2022/09/27 08:21:01;;;;;;;4.25;1.92;;;;;;;;;;5004056;28;20184;-76
2022/09/27 08:23:27;;;;;;;4.63;1.70;;;;;;;;;;5008190;28;20475;-76
2022/09/27 08:25:53;;;;;;;4.65;1.70;;;;;;;;;;5020735;28;20026;-77
2022/09/27 08:28:18;;;;;;;3.97;1.65;;;;;;;;;;5010888;28;20116;-76
2022/09/27 08:30:44;;;;;;;2.90;1.83;;;;;;;;;;5006568;28;20083;-76
2022/09/27 08:33:09;;;;;;;5.63;2.45;;;;;;;;;;5024899;28;20402;-76
2022/09/27 08:35:35;;;;;;;3.88;2.58;;;;;;;;;;5006269;28;20145;-79
2022/09/27 08:38:01;;;;;;;3.60;2.42;;;;;;;;;;5042665;28;20390;-76
2022/09/27 08:40:50;;;;;;;4.28;2.63;;;;;;;;;;5011054;28;20033;-76
2022/09/27 08:43:28;;;;;;;4.85;2.70;;;;;;;;;;5007655;28;20033;-75
2022/09/27 08:46:00;;;;;;;4.78;3.00;;;;;;;;;;5006783;28;20025;-78
2022/09/27 08:48:27;;;;;;;4.68;3.25;;;;;;;;;;5025689;28;20512;-76
2022/09/27 08:50:54;;;;;;;5.07;2.72;;;;;;;;;;5012234;28;20041;-76
2022/09/27 08:53:24;;;;;;;4.93;2.75;;;;;;;;;;5007058;28;20165;-76
2022/09/27 08:56:01;;;;;;;5.03;3.22;;;;;;;;;;5010588;28;20488;-76
2022/09/27 08:58:29;;;;;;;6.13;2.97;;;;;;;;;;5006671;28;20045;-76
2022/09/27 09:00:58;;;;;;;4.85;2.40;;;;;;;;;;5007474;28;20030;-76
2022/09/27 09:03:26;;;;;;;4.70;2.45;;;;;;;;;;5009418;28;20033;-76
2022/09/27 09:06:07;;;;;;;4.65;2.33;;;;;;;;;;5009568;28;20055;-76
2022/09/27 09:09:14;;;;;;;4.03;2.35;;;;;;;;;;5010150;28;20021;-78
2022/09/27 09:15:13;;;;;;;2.72;1.73;;;;;;;;;;5006260;28;20485;-78
2022/09/27 09:18:03;;;;;;;4.20;1.87;;;;;;;;;;4992135;28;20172;-76
2022/09/27 09:20:57;;;;;;;4.65;2.10;;;;;;;;;;5027271;28;20080;-77
2022/09/27 09:23:28;;;;;;;3.78;2.33;;;;;;;;;;5004125;28;20054;-76
2022/09/27 09:26:18;;;;;;;4.32;1.80;;;;;;;;;;5021811;28;20026;-76
2022/09/27 09:28:52;;;;;;;2.72;1.63;;;;;;;;;;5008381;28;20536;-77
2022/09/27 09:31:54;;;;;;;3.50;1.55;;;;;;;;;;5006263;28;20040;-76
2022/09/27 09:34:28;;;;;;;3.60;1.65;;;;;;;;;;5002831;28;20502;-77
2022/09/27 09:37:02;;;;;;;5.10;1.60;;;;;;;;;;5000233;28;20037;-76
2022/09/27 09:39:30;;;;;;;2.97;1.52;;;;;;;;;;5002137;28;20033;-76
2022/09/27 09:42:05;;;;;;;3.60;2.00;;;;;;;;;;5010262;28;20025;-75
2022/09/27 09:44:43;;;;;;;4.28;1.85;;;;;;;;;;5004096;28;20040;-77
2022/09/27 09:47:26;;;;;;;3.80;1.48;;;;;;;;;;5014031;28;20486;-77
2022/09/27 09:49:58;;;;;;;2.07;1.50;;;;;;;;;;5008996;28;20135;-76
2022/09/27 09:52:34;;;;;;;3.42;1.55;;;;;;;;;;5006344;28;20018;-76
2022/09/27 09:55:12;;;;;;;3.38;1.30;;;;;;;;;;5010401;28;20022;-76
2022/09/27 09:57:43;;;;;;;3.75;1.80;;;;;;;;;;5011220;28;20033;-75
2022/09/27 10:00:14;;;;;;;3.83;1.50;;;;;;;;;;5010511;28;20084;-76
2022/09/27 10:02:45;;;;;;;2.15;1.40;;;;;;;;;;5010206;28;20502;-76
2022/09/27 10:05:21;;;;;;;3.70;1.55;;;;;;;;;;5008286;28;20030;-76
2022/09/27 10:07:49;;;;;;;4.80;1.60;;;;;;;;;;5007301;28;20026;-76
2022/09/27 10:10:16;;;;;;;2.55;1.38;;;;;;;;;;5007052;28;20092;-76
2022/09/27 10:12:43;;;;;;;3.13;1.00;;;;;;;;;;5002290;28;20440;-76
2022/09/27 10:15:17;;;;;;;2.17;1.10;;;;;;;;;;5001170;28;20037;-76
2022/09/27 10:17:48;;;;;;;1.80;1.00;;;;;;;;;;5013660;28;20380;-78
2022/09/27 10:20:26;;;;;;;5.60;1.25;;;;;;;;;;4999021;28;20037;-76
2022/09/27 10:23:02;;;;;;;3.03;1.38;;;;;;;;;;5020133;28;20062;-77
2022/09/27 10:25:49;;;;;;;3.13;1.10;;;;;;;;;;5029488;28;20070;-76
2022/09/27 10:28:33;;;;;;;1.42;0.95;;;;;;;;;;5007170;28;20492;-76
2022/09/27 10:31:01;;;;;;;2.85;0.90;;;;;;;;;;5014153;28;20386;-76
2022/09/27 10:33:30;;;;;;;2.75;1.15;;;;;;;;;;5004968;28;20057;-80
2022/09/27 10:35:56;;;;;;;2.05;1.23;;;;;;;;;;5007815;28;20022;-76
2022/09/27 10:38:28;;;;;;;3.28;1.30;;;;;;;;;;5002964;28;21130;-76
2022/09/27 10:40:55;;;;;;;1.70;1.00;;;;;;;;;;5004650;28;20022;-77
2022/09/27 10:43:26;;;;;;;3.60;1.23;;;;;;;;;;5004081;28;20189;-77
2022/09/27 10:46:12;;;;;;;2.45;1.00;;;;;;;;;;5006989;28;20053;-77
2022/09/27 10:48:40;;;;;;;4.20;1.23;;;;;;;;;;5008158;28;20042;-77
2022/09/27 10:51:22;;;;;;;2.78;0.65;;;;;;;;;;5009862;28;20022;-76
2022/09/27 10:53:48;;;;;;;4.20;0.80;;;;;;;;;;5009517;28;20504;-75
2022/09/27 10:56:27;;;;;;;2.47;0.60;;;;;;;;;;5008436;28;20030;-76
2022/09/27 10:58:53;;;;;;;1.42;0.50;;;;;;;;;;5014773;28;20389;-78
2022/09/27 11:01:19;;;;;;;2.53;0.60;;;;;;;;;;5044139;28;20017;-77
2022/09/27 11:03:52;;;;;;;0.60;0.40;;;;;;;;;;5012796;28;20030;-76
2022/09/27 11:06:19;;;;;;;;;;;;;;;;;;5012546;28;20034;-76
2022/09/27 11:08:47;;;;;;;0.52;0.22;;;;;;;;;;5013641;28;20411;-76
2022/09/27 11:11:12;;;;;;;8.52;0.75;;;;;;;;;;5010364;28;20030;-77
2022/09/27 11:13:38;;;;;;;2.30;0.55;;;;;;;;;;5006873;28;20026;-76
2022/09/27 11:16:27;;;;;;;1.77;0.30;;;;;;;;;;5015658;28;20042;-76
2022/09/27 11:19:26;;;;;;;3.15;0.35;;;;;;;;;;5026939;28;20026;-76
2022/09/27 11:22:20;;;;;;;1.40;0.60;;;;;;;;;;5021765;28;20068;-77
2022/09/27 11:24:49;;;;;;;3.20;0.45;;;;;;;;;;5011434;28;20133;-76
2022/09/27 11:27:43;;;;;;;1.58;0.40;;;;;;;;;;5010967;28;20026;-76
2022/09/27 11:30:22;;;;;;;0.93;0.40;;;;;;;;;;5009041;28;20034;-76
2022/09/27 11:33:02;;;;;;;1.52;0.50;;;;;;;;;;5011502;28;20417;-76
2022/09/27 11:35:43;;;;;;;2.58;0.50;;;;;;;;;;5013218;28;20029;-76
2022/09/27 11:38:24;;;;;;;0.50;0.38;;;;;;;;;;5008873;28;20053;-76
2022/09/27 11:41:04;;;;;;;1.20;0.40;;;;;;;;;;5010976;28;20036;-76
2022/09/27 11:44:05;;;;;;;1.10;0.40;;;;;;;;;;5017244;28;20037;-76
2022/09/27 11:46:33;;;;;;;2.25;0.40;;;;;;;;;;5010803;28;20044;-76
2022/09/27 11:49:49;;;;;;;0.90;0.40;;;;;;;;;;5010906;28;20034;-76
2022/09/27 11:52:21;;;;;;;2.08;0.55;;;;;;;;;;4996249;28;20387;-76
2022/09/27 11:54:57;;;;;;;1.55;0.40;;;;;;;;;;4993083;28;20018;-76
2022/09/27 11:57:30;;;;;;;0.85;0.30;;;;;;;;;;5007018;28;20456;-76
2022/09/27 12:00:09;;;;;;;1.05;0.43;;;;;;;;;;5012050;28;20111;-76
2022/09/27 12:03:03;;;;;;;3.28;0.47;;;;;;;;;;5013293;28;20030;-76
2022/09/27 12:05:54;;;;;;;0.63;0.10;;;;;;;;;;5043457;28;20060;-76
2022/09/27 12:08:46;;;;;;;1.55;0.28;;;;;;;;;;5010065;28;20520;-76
2022/09/27 12:11:27;;;;;;;0.82;0.30;;;;;;;;;;5009618;28;20045;-76
2022/09/27 12:14:01;;;;;;;1.50;0.28;;;;;;;;;;5008539;28;20393;-75
2022/09/27 12:16:28;;;;;;;0.45;0.25;;;;;;;;;;5006398;28;20152;-76
2022/09/27 12:18:54;;;;;;;0.35;0.20;;;;;;;;;;5011081;28;20028;-77
2022/09/27 12:21:21;;;;;;;1.92;0.20;;;;;;;;;;4998428;28;20499;-76
2022/09/27 12:23:50;;;;;;;0.43;0.30;;;;;;;;;;5006410;28;20100;-76
2022/09/27 12:26:20;;;;;;;1.15;0.25;;;;;;;;;;5011004;28;20040;-76
2022/09/27 12:29:12;;;;;;;0.20;0.20;;;;;;;;;;5005848;28;20021;-76
2022/09/27 12:31:53;;;;;;;0.10;0.10;;;;;;;;;;5010086;28;20478;-77
2022/09/27 12:34:28;;;;;;;1.27;0.28;;;;;;;;;;5006123;28;20033;-76
2022/09/27 12:37:09;;;;;;;0.98;0.20;;;;;;;;;;5007366;28;20497;-76
2022/09/27 12:40:04;;;;;;;0.52;0.10;;;;;;;;;;5006871;28;20027;-77
2022/09/27 12:42:44;;;;;;;2.70;0.38;;;;;;;;;;5018859;28;20022;-75
2022/09/27 12:45:13;;;;;;;0.70;0.28;;;;;;;;;;5010810;28;20548;-76
2022/09/27 12:48:01;;;;;;;0.80;0.30;;;;;;;;;;5010509;28;20064;-77
2022/09/27 12:50:52;;;;;;;3.40;0.30;;;;;;;;;;5034003;28;20068;-76
2022/09/27 12:53:25;;;;;;;0.43;0.20;;;;;;;;;;5007492;28;20545;-76
2022/09/27 12:56:26;;;;;;;1.13;0.20;;;;;;;;;;5009863;28;20026;-76
2022/09/27 12:59:12;;;;;;;0.20;0.20;;;;;;;;;;5007291;28;20105;-75
2022/09/27 13:01:40;;;;;;;0.55;0.20;;;;;;;;;;5005980;28;20039;-77
2022/09/27 13:04:24;;;;;;;0.40;0.20;;;;;;;;;;5004763;28;20079;-75
2022/09/27 13:07:11;;;;;;;1.00;0.28;;;;;;;;;;5036744;28;20084;-77
2022/09/27 13:09:56;;;;;;;0.50;0.20;;;;;;;;;;5012013;28;20109;-76
2022/09/27 13:12:25;;;;;;;0.85;0.30;;;;;;;;;;5012015;28;20553;-75
2022/09/27 13:14:56;;;;;;;0.47;0.20;;;;;;;;;;5008317;28;20037;-76
2022/09/27 13:17:32;;;;;;;0.93;0.38;;;;;;;;;;5027635;28;20084;-76
2022/09/27 13:19:58;;;;;;;0.75;0.30;;;;;;;;;;5005891;28;20548;-76
2022/09/27 13:22:26;;;;;;;0.60;0.35;;;;;;;;;;5005044;28;20033;-76
2022/09/27 13:24:53;;;;;;;1.05;0.30;;;;;;;;;;5009795;28;20037;-77
2022/09/27 13:27:21;;;;;;;1.23;0.30;;;;;;;;;;5010998;28;20022;-78
2022/09/27 13:29:46;;;;;;;0.20;0.20;;;;;;;;;;5005110;28;20034;-77
2022/09/27 13:32:22;;;;;;;1.05;0.50;;;;;;;;;;4997438;28;20380;-76
2022/09/27 13:34:50;;;;;;;0.77;0.43;;;;;;;;;;5000436;28;20030;-76
2022/09/27 13:37:35;;;;;;;0.52;0.40;;;;;;;;;;4999346;28;20072;-76
2022/09/27 13:40:23;;;;;;;2.08;0.73;;;;;;;;;;5002064;28;20567;-77
2022/09/27 13:43:09;;;;;;;0.70;0.50;;;;;;;;;;5003191;28;20037;-78
2022/09/27 13:45:59;;;;;;;0.73;0.43;;;;;;;;;;4998569;28;20030;-77
2022/09/27 13:48:49;;;;;;;1.13;0.40;;;;;;;;;;4999275;28;20072;-77
2022/09/27 13:51:17;;;;;;;0.73;0.40;;;;;;;;;;5007601;28;20049;-78
2022/09/27 13:54:01;;;;;;;0.25;0.22;;;;;;;;;;5005680;28;20486;-77
2022/09/27 13:56:39;;;;;;;0.75;0.30;;;;;;;;;;5003402;28;20486;-77
2022/09/27 13:59:10;;;;;;;0.93;0.40;;;;;;;;;;5004600;28;20036;-77
2022/09/27 14:01:41;;;;;;;1.33;0.32;;;;;;;;;;5001636;28;20021;-77
2022/09/27 14:04:21;;;;;;;3.13;0.60;;;;;;;;;;5035560;28;20038;-77
2022/09/27 14:06:51;;;;;;;1.30;0.60;;;;;;;;;;5004954;28;20121;-78
2022/09/27 14:09:20;;;;;;;1.02;0.45;;;;;;;;;;5005039;28;20406;-77
2022/09/27 14:11:53;;;;;;;1.77;0.63;;;;;;;;;;5007591;28;20053;-77
2022/09/27 14:14:23;;;;;;;1.30;0.60;;;;;;;;;;4995479;28;20677;-78
2022/09/27 14:16:49;;;;;;;2.20;0.55;;;;;;;;;;5000364;28;20034;-78
2022/09/27 14:19:18;;;;;;;1.17;0.73;;;;;;;;;;5000814;28;20155;-78
2022/09/27 14:21:44;;;;;;;1.30;0.85;;;;;;;;;;5003190;28;20065;-77
2022/09/27 14:24:30;;;;;;;3.50;1.20;;;;;;;;;;5000641;28;20105;-78
2022/09/27 14:27:18;;;;;;;1.77;0.95;;;;;;;;;;5003606;28;20026;-77
2022/09/27 14:29:45;;;;;;;2.67;1.00;;;;;;;;;;5029015;28;20156;-77
2022/09/27 14:32:25;;;;;;;3.97;1.15;;;;;;;;;;4999128;28;20497;-78
2022/09/27 14:38:01;;;;;;;2.20;1.40;;;;;;;;;;5006184;28;20037;-77
2022/09/27 14:40:28;;;;;;;2.20;1.40;;;;;;;;;;5004688;28;20054;-77
2022/09/27 14:42:58;;;;;;;5.13;1.50;;;;;;;;;;5003269;28;20034;-77
2022/09/27 14:45:35;;;;;;;2.65;1.50;;;;;;;;;;5003371;28;20036;-77
2022/09/27 14:48:16;;;;;;;6.95;1.90;;;;;;;;;;5003597;28;20253;-78
2022/09/27 14:51:02;;;;;;;5.10;2.05;;;;;;;;;;5002038;28;20034;-78
2022/09/27 14:53:34;;;;;;;3.97;2.00;;;;;;;;;;5003942;28;20078;-77
2022/09/27 14:56:01;;;;;;;4.20;1.90;;;;;;;;;;5003738;28;20095;-77
2022/09/27 14:58:27;;;;;;;7.10;3.00;;;;;;;;;;5007186;28;20490;-76
2022/09/27 15:00:53;;;;;;;9.13;3.70;;;;;;;;;;4998918;28;20458;-77
2022/09/27 15:03:24;;;;;;;4.10;2.42;;;;;;;;;;5005215;28;20104;-77
2022/09/27 15:05:51;;;;;;;4.18;2.50;;;;;;;;;;5008684;28;20124;-79
2022/09/27 15:08:17;;;;;;;3.78;1.92;;;;;;;;;;5001761;28;20034;-77
2022/09/27 15:10:43;;;;;;;6.28;2.80;;;;;;;;;;5004508;28;20437;-77
2022/09/27 15:13:14;;;;;;;7.90;4.32;;;;;;;;;;5007965;28;20057;-77
2022/09/27 15:15:40;;;;;;;5.55;2.70;;;;;;;;;;4996517;28;20030;-77
2022/09/27 15:18:28;;;;;;;5.65;3.03;;;;;;;;;;5004856;28;20359;-77
2022/09/27 15:20:53;;;;;;;5.93;3.33;;;;;;;;;;5002455;28;20390;-78
2022/09/27 15:23:33;;;;;;;4.40;2.17;;;;;;;;;;5007180;28;20033;-76
2022/09/27 15:26:13;;;;;;;5.70;1.80;;;;;;;;;;5006301;28;20038;-77